Ellis Prairie, Missouri
Current Conditions -  °F | °C
As of 12:58 PM on Sunday 21 Dec 2014 (Local Time) from KTBN Reporting Station
Overcast Overcast  
Wind Chill: 34°   Ceiling: 800
Heat Index: 40°   Visibility: 10mi
Dew Point: 40°   Wind: 8mph
Humidity: 99%   Direction: 150°SSE
Pressure: 30.01"   Gusts: NA
Location:  37.3991°N, 92.0382°W
Report Text: KTBN 211858Z AUTO 15007KT 10SM OVC008 04/04 A3001 RMK AO2 SLP172 T00430042 $
Loading
Personal Weather Stations






























Interactive Weather Map New forecast layout! Learn more

10-Day Weather Forecast

Advertisements
Track Severe Weather on mobile